Hatsu Envoy — VSQL9 — position and weather

sailwx.info

Track history (hours):
 
Tides and Currents Weather Stations Pressure Air Temp Water Temp Dewpoint Dewpoint Depression Visibility Wind Speed Wind Dir Waves Ship Positions

Hatsu Envoy

Last reported at 2016-Apr-25 08:20 UTC. Time now 2016-May-01 06:06 UTC.
Position N 34°06' E 129°39'.

Type: Cargo ship. MMSI: 235414000.

Date/timePositionNaut miles runAvg speedWind from/ knotsBaromVisibWave heightAir tempDewpointWater temp
2016-Apr-25 08:20N 34°06' E 129°39'2420.3
2016-Apr-25 07:08N 33°51' E 129°17'38619.6
2016-Apr-24 11:26N 29°57' E 123°14'3417.8
2016-Apr-24 09:31N 29°40' E 122°40'1616.4
2016-Apr-24 08:33N 29°43' E 122°23'1313.3
2016-Apr-24 07:33N 29°52' E 122°11'7 7.1
2016-Apr-24 06:30N 29°53' E 122°03'0 0.0
2016-Apr-24 05:24N 29°53' E 122°03'0 0.0
2016-Apr-24 01:30N 29°53' E 122°03'0 0.0
2016-Apr-23 20:12N 29°53' E 122°03'0 0.2
2016-Apr-23 18:33N 29°54' E 122°03'8 8.3
2016-Apr-23 17:33N 29°51' E 122°12'1010.1
2016-Apr-23 16:32N 29°45' E 122°21'1111.6
2016-Apr-23 15:33N 29°41' E 122°34'11210.2
2016-Apr-23 04:33N 31°22' E 121°36'1 1.2
2016-Apr-23 03:23N 31°22' E 121°35'0 0.0
2016-Apr-23 02:26N 31°22' E 121°35'0 0.0
2016-Apr-23 01:32N 31°22' E 121°35'0 0.0
2016-Apr-23 00:32N 31°22' E 121°35'0 0.0
2016-Apr-22 23:29N 31°22' E 121°35'0 0.0
2016-Apr-22 22:29N 31°22' E 121°35'0 0.0
2016-Apr-22 21:29N 31°23' E 121°35'0 0.0
2016-Apr-22 20:29N 31°22' E 121°35'0 0.0
2016-Apr-22 19:29N 31°22' E 121°35'0 0.0
2016-Apr-22 18:29N 31°22' E 121°35'0 0.0
2016-Apr-22 17:29N 31°22' E 121°35'0 0.5
2016-Apr-22 16:32N 31°23' E 121°35'9 8.9
2016-Apr-22 15:33N 31°19' E 121°44'1010.4
2016-Apr-22 14:33N 31°15' E 121°56'1110.9
2016-Apr-22 13:33N 31°12' E 122°08'1010.5
2016-Apr-22 12:33N 31°06' E 122°18'10 9.9
2016-Apr-22 11:33N 31°07' E 122°29'9 9.2
2016-Apr-22 10:33N 31°07' E 122°40'3416.4
2016-Apr-22 08:28N 30°49' E 123°14'3015.0
2016-Apr-22 06:27N 30°23' E 123°33'1616.0
2016-Apr-22 05:28N 30°07' E 123°33'1616.6
2016-Apr-22 04:30N 29°51' E 123°32'5217.4
2016-Apr-22 01:31N 28°59' E 123°28'35620.8
2016-Apr-21 08:22N 23°54' E 120°02'6613.5
2016-Apr-21 03:30N 22°49' E 120°00'5 5.2
2016-Apr-21 02:33N 22°44' E 120°02'2 1.9
2016-Apr-21 01:33N 22°42' E 120°02'5 5.1
2016-Apr-21 00:33N 22°37' E 120°04'1211.9
2016-Apr-20 23:34N 22°33' E 120°16'3 2.2
2016-Apr-20 22:10N 22°33' E 120°19'0 0.0
2016-Apr-20 18:25N 22°33' E 120°19'0 0.0
2016-Apr-20 17:31N 22°33' E 120°19'0 0.0
2016-Apr-20 16:31N 22°33' E 120°19'0 0.0
2016-Apr-20 15:25N 22°33' E 120°19'0 0.0
2016-Apr-20 14:31N 22°33' E 120°19'0 0.0
2016-Apr-20 12:22N 22°33' E 120°19'0 0.0
2016-Apr-20 10:28N 22°33' E 120°19'0 0.0
2016-Apr-20 09:16N 22°33' E 120°19'0 0.0
2016-Apr-20 08:04N 22°33' E 120°19'0 0.0
2016-Apr-20 07:28N 22°33' E 120°19'1 0.1
2016-Apr-19 23:31N 22°33' E 120°18'5 5.2
2016-Apr-19 22:33N 22°32' E 120°13'2 2.3
2016-Apr-19 21:33N 22°32' E 120°10'1312.2
2016-Apr-19 20:30N 22°30' E 119°56'31414.0
2016-Apr-18 22:05N 22°34' E 114°17'1 0.5
2016-Apr-18 20:21N 22°34' E 114°16'0 0.0
2016-Apr-18 18:21N 22°34' E 114°16'0 0.0
2016-Apr-18 13:27N 22°34' E 114°16'25 4.7
2016-Apr-18 08:11N 22°13' E 114°28'811.7
2016-Apr-18 07:32N 22°07' E 114°23'2010.1
2016-Apr-18 05:33N 22°19' E 114°06'2 1.7
2016-Apr-18 04:26N 22°20' E 114°08'0 0.0
2016-Apr-18 03:20N 22°20' E 114°08'0 0.0
2016-Apr-18 02:32N 22°20' E 114°08'0 0.0
2016-Apr-18 01:32N 22°20' E 114°08'0 0.0
2016-Apr-18 00:32N 22°20' E 114°08'0 0.0
2016-Apr-17 23:29N 22°20' E 114°08'0 0.0
2016-Apr-17 22:32N 22°20' E 114°08'0 0.0
2016-Apr-17 21:29N 22°20' E 114°08'0 0.0
2016-Apr-17 20:32N 22°20' E 114°08'0 0.0
2016-Apr-17 19:33N 22°20' E 114°08'6 6.2
2016-Apr-17 18:32N 22°14' E 114°09'9 8.4
2016-Apr-17 17:26N 22°08' E 114°18'1415.9
2016-Apr-17 16:33N 22°09' E 114°32'29819.5
2016-Apr-17 01:14N 24°31' E 119°18'  
Track history (hours):
 
Tides and Currents Weather Stations Pressure Air Temp Water Temp Dewpoint Dewpoint Depression Visibility Wind Speed Wind Dir Waves Ship Positions

Hatsu Envoy

Last reported at 2016-Apr-25 08:20 UTC. Time now 2016-May-01 06:06 UTC.
Position N 34°06' E 129°39'.

Type: Cargo ship. MMSI: 235414000.

Date/timePositionNaut miles runAvg speedWind from/ knotsBaromVisibWave heightAir tempDewpointWater temp
2016-Apr-25 08:20N 34°06' E 129°39'2420.3
2016-Apr-25 07:08N 33°51' E 129°17'38619.6
2016-Apr-24 11:26N 29°57' E 123°14'3417.8
2016-Apr-24 09:31N 29°40' E 122°40'1616.4
2016-Apr-24 08:33N 29°43' E 122°23'1313.3
2016-Apr-24 07:33N 29°52' E 122°11'7 7.1
2016-Apr-24 06:30N 29°53' E 122°03'0 0.0
2016-Apr-24 05:24N 29°53' E 122°03'0 0.0
2016-Apr-24 01:30N 29°53' E 122°03'0 0.0
2016-Apr-23 20:12N 29°53' E 122°03'0 0.2
2016-Apr-23 18:33N 29°54' E 122°03'8 8.3
2016-Apr-23 17:33N 29°51' E 122°12'1010.1
2016-Apr-23 16:32N 29°45' E 122°21'1111.6
2016-Apr-23 15:33N 29°41' E 122°34'11210.2
2016-Apr-23 04:33N 31°22' E 121°36'1 1.2
2016-Apr-23 03:23N 31°22' E 121°35'0 0.0
2016-Apr-23 02:26N 31°22' E 121°35'0 0.0
2016-Apr-23 01:32N 31°22' E 121°35'0 0.0
2016-Apr-23 00:32N 31°22' E 121°35'0 0.0
2016-Apr-22 23:29N 31°22' E 121°35'0 0.0
2016-Apr-22 22:29N 31°22' E 121°35'0 0.0
2016-Apr-22 21:29N 31°23' E 121°35'0 0.0
2016-Apr-22 20:29N 31°22' E 121°35'0 0.0
2016-Apr-22 19:29N 31°22' E 121°35'0 0.0
2016-Apr-22 18:29N 31°22' E 121°35'0 0.0
2016-Apr-22 17:29N 31°22' E 121°35'0 0.5
2016-Apr-22 16:32N 31°23' E 121°35'9 8.9
2016-Apr-22 15:33N 31°19' E 121°44'1010.4
2016-Apr-22 14:33N 31°15' E 121°56'1110.9
2016-Apr-22 13:33N 31°12' E 122°08'1010.5
2016-Apr-22 12:33N 31°06' E 122°18'10 9.9
2016-Apr-22 11:33N 31°07' E 122°29'9 9.2
2016-Apr-22 10:33N 31°07' E 122°40'3416.4
2016-Apr-22 08:28N 30°49' E 123°14'3015.0
2016-Apr-22 06:27N 30°23' E 123°33'1616.0
2016-Apr-22 05:28N 30°07' E 123°33'1616.6
2016-Apr-22 04:30N 29°51' E 123°32'5217.4
2016-Apr-22 01:31N 28°59' E 123°28'35620.8
2016-Apr-21 08:22N 23°54' E 120°02'6613.5
2016-Apr-21 03:30N 22°49' E 120°00'5 5.2
2016-Apr-21 02:33N 22°44' E 120°02'2 1.9
2016-Apr-21 01:33N 22°42' E 120°02'5 5.1
2016-Apr-21 00:33N 22°37' E 120°04'1211.9
2016-Apr-20 23:34N 22°33' E 120°16'3 2.2
2016-Apr-20 22:10N 22°33' E 120°19'0 0.0
2016-Apr-20 18:25N 22°33' E 120°19'0 0.0
2016-Apr-20 17:31N 22°33' E 120°19'0 0.0
2016-Apr-20 16:31N 22°33' E 120°19'0 0.0
2016-Apr-20 15:25N 22°33' E 120°19'0 0.0
2016-Apr-20 14:31N 22°33' E 120°19'0 0.0
2016-Apr-20 12:22N 22°33' E 120°19'0 0.0
2016-Apr-20 10:28N 22°33' E 120°19'0 0.0
2016-Apr-20 09:16N 22°33' E 120°19'0 0.0
2016-Apr-20 08:04N 22°33' E 120°19'0 0.0
2016-Apr-20 07:28N 22°33' E 120°19'1 0.1
2016-Apr-19 23:31N 22°33' E 120°18'5 5.2
2016-Apr-19 22:33N 22°32' E 120°13'2 2.3
2016-Apr-19 21:33N 22°32' E 120°10'1312.2
2016-Apr-19 20:30N 22°30' E 119°56'31414.0
2016-Apr-18 22:05N 22°34' E 114°17'1 0.5
2016-Apr-18 20:21N 22°34' E 114°16'0 0.0
2016-Apr-18 18:21N 22°34' E 114°16'0 0.0
2016-Apr-18 13:27N 22°34' E 114°16'25 4.7
2016-Apr-18 08:11N 22°13' E 114°28'811.7
2016-Apr-18 07:32N 22°07' E 114°23'2010.1
2016-Apr-18 05:33N 22°19' E 114°06'2 1.7
2016-Apr-18 04:26N 22°20' E 114°08'0 0.0
2016-Apr-18 03:20N 22°20' E 114°08'0 0.0
2016-Apr-18 02:32N 22°20' E 114°08'0 0.0
2016-Apr-18 01:32N 22°20' E 114°08'0 0.0
2016-Apr-18 00:32N 22°20' E 114°08'0 0.0
2016-Apr-17 23:29N 22°20' E 114°08'0 0.0
2016-Apr-17 22:32N 22°20' E 114°08'0 0.0
2016-Apr-17 21:29N 22°20' E 114°08'0 0.0
2016-Apr-17 20:32N 22°20' E 114°08'0 0.0
2016-Apr-17 19:33N 22°20' E 114°08'6 6.2
2016-Apr-17 18:32N 22°14' E 114°09'9 8.4
2016-Apr-17 17:26N 22°08' E 114°18'1415.9
2016-Apr-17 16:33N 22°09' E 114°32'29819.5
2016-Apr-17 01:14N 24°31' E 119°18'  

Dump ship's entire track history